createdAt,value
2018-11-28T00:00:25.211Z,0.00
2018-11-28T00:01:25.205Z,0.00
2018-11-28T00:02:25.205Z,0.00
2018-11-28T00:03:25.179Z,0.00
2018-11-28T00:04:25.171Z,0.00
2018-11-28T00:05:25.158Z,0.00
2018-11-28T00:06:25.147Z,0.00
2018-11-28T00:07:25.159Z,0.00
2018-11-28T00:08:25.135Z,0.00
2018-11-28T00:09:26.155Z,0.00
2018-11-28T00:10:25.105Z,0.00
2018-11-28T00:11:25.096Z,0.00
2018-11-28T00:12:25.100Z,0.00
2018-11-28T00:13:25.082Z,0.00
2018-11-28T00:14:25.072Z,0.00
2018-11-28T00:15:25.057Z,0.00
2018-11-28T00:16:25.059Z,0.00
2018-11-28T00:17:25.045Z,0.00
2018-11-28T00:18:25.024Z,0.00
2018-11-28T00:19:25.013Z,0.00
2018-11-28T00:20:25.005Z,0.00
2018-11-28T00:21:24.990Z,0.00
2018-11-28T00:22:24.999Z,0.00
2018-11-28T00:23:24.976Z,0.00
2018-11-28T00:24:24.958Z,0.00
2018-11-28T00:25:24.947Z,0.00
2018-11-28T00:26:24.936Z,0.00
2018-11-28T00:27:24.941Z,0.00
2018-11-28T00:28:24.918Z,0.00
2018-11-28T00:29:24.909Z,0.00
2018-11-28T00:30:24.894Z,0.00
2018-11-28T00:31:24.884Z,0.00
2018-11-28T00:32:24.875Z,0.00
2018-11-28T00:33:24.877Z,0.00
2018-11-28T00:34:24.853Z,0.00
2018-11-28T00:35:24.851Z,0.00
2018-11-28T00:36:24.833Z,0.00
2018-11-28T00:37:24.822Z,0.00
2018-11-28T00:38:24.824Z,0.00
2018-11-28T00:39:24.802Z,0.00
2018-11-28T00:40:24.790Z,0.00
2018-11-28T00:41:24.783Z,0.00
2018-11-28T00:42:24.770Z,0.00
2018-11-28T00:43:24.772Z,0.00
2018-11-28T00:44:24.750Z,0.00
2018-11-28T00:45:24.738Z,0.00
2018-11-28T00:46:24.728Z,0.00
2018-11-28T00:47:24.725Z,0.00
2018-11-28T00:48:24.719Z,0.00
2018-11-28T00:49:24.695Z,0.00
2018-11-28T00:50:24.685Z,0.00
2018-11-28T00:51:24.675Z,0.00
2018-11-28T00:52:24.664Z,0.00
2018-11-28T00:53:24.674Z,0.00
2018-11-28T00:54:24.643Z,0.00
2018-11-28T00:55:24.633Z,0.00
2018-11-28T00:56:24.623Z,0.00
2018-11-28T00:57:24.612Z,0.00
2018-11-28T00:58:24.622Z,0.00
2018-11-28T00:59:24.597Z,0.00
2018-11-28T01:00:24.579Z,0.00
2018-11-28T01:01:24.571Z,0.00
2018-11-28T01:02:24.559Z,0.00
2018-11-28T01:03:24.565Z,0.00
2018-11-28T01:04:24.538Z,0.00
2018-11-28T01:05:24.533Z,0.00
2018-11-28T01:06:24.518Z,0.00
2018-11-28T01:07:24.506Z,0.00
2018-11-28T01:08:24.509Z,0.00
2018-11-28T01:09:24.488Z,0.00
2018-11-28T01:10:24.477Z,0.00
2018-11-28T01:11:24.473Z,0.00
2018-11-28T01:12:24.457Z,0.00
2018-11-28T01:13:24.457Z,0.00
2018-11-28T01:14:24.432Z,0.00
2018-11-28T01:15:24.425Z,0.00
2018-11-28T01:16:24.411Z,0.00
2018-11-28T01:17:24.401Z,0.00
2018-11-28T01:18:24.409Z,0.00
2018-11-28T01:19:24.381Z,0.00
2018-11-28T01:20:24.369Z,0.00
2018-11-28T01:21:24.358Z,0.00
2018-11-28T01:22:24.350Z,0.00
2018-11-28T01:23:24.353Z,0.00
2018-11-28T01:24:24.334Z,0.00
2018-11-28T01:25:24.317Z,0.00
2018-11-28T01:26:24.309Z,0.00
2018-11-28T01:27:24.297Z,0.00
2018-11-28T01:28:24.300Z,0.00
2018-11-28T01:29:24.277Z,0.00
2018-11-28T01:30:24.269Z,0.00
2018-11-28T01:31:24.259Z,0.00
2018-11-28T01:32:24.259Z,0.00
2018-11-28T01:33:24.246Z,0.00
2018-11-28T01:34:24.223Z,0.00
2018-11-28T01:35:24.213Z,0.00
2018-11-28T01:36:24.201Z,0.00
2018-11-28T01:37:24.194Z,0.00
2018-11-28T01:38:24.201Z,0.00
2018-11-28T01:39:24.171Z,0.00
2018-11-28T01:40:24.160Z,0.00
2018-11-28T01:41:24.149Z,0.00
2018-11-28T01:42:24.141Z,0.00
2018-11-28T01:43:24.144Z,0.00
2018-11-28T01:44:24.120Z,0.00
2018-11-28T01:45:24.106Z,0.00
2018-11-28T01:46:24.097Z,0.00
2018-11-28T01:47:24.086Z,0.00
2018-11-28T01:48:24.088Z,0.00
2018-11-28T01:49:24.064Z,0.00
2018-11-28T01:50:24.065Z,0.00
2018-11-28T01:51:24.044Z,0.00
2018-11-28T01:52:24.033Z,0.00
2018-11-28T01:53:24.038Z,0.00
2018-11-28T01:54:24.013Z,0.00
2018-11-28T01:55:24.001Z,0.00
2018-11-28T01:56:23.999Z,0.00
2018-11-28T01:57:23.980Z,0.00
2018-11-28T01:58:23.981Z,0.00
2018-11-28T01:59:23.961Z,0.00
2018-11-28T02:00:23.947Z,0.00
2018-11-28T02:01:23.938Z,0.00
2018-11-28T02:02:23.932Z,0.00
2018-11-28T02:03:23.939Z,0.00
2018-11-28T02:04:23.906Z,0.00
2018-11-28T02:05:23.895Z,0.00
2018-11-28T02:06:23.884Z,0.00
2018-11-28T02:07:23.874Z,0.00
2018-11-28T02:08:23.876Z,0.00
2018-11-28T02:09:23.860Z,0.00
2018-11-28T02:10:23.842Z,0.00
2018-11-28T02:11:23.832Z,0.00
2018-11-28T02:12:23.821Z,0.00
2018-11-28T02:13:23.825Z,0.00
2018-11-28T02:14:23.800Z,0.00
2018-11-28T02:15:23.795Z,0.00
2018-11-28T02:16:23.779Z,0.00
2018-11-28T02:17:23.770Z,0.00
2018-11-28T02:18:23.773Z,0.00
2018-11-28T02:19:23.748Z,0.00
2018-11-28T02:20:23.740Z,0.00
2018-11-28T02:21:23.735Z,0.00
2018-11-28T02:22:23.718Z,0.00
2018-11-28T02:23:23.719Z,0.00
2018-11-28T02:24:23.694Z,0.00
2018-11-28T02:25:23.684Z,0.00
2018-11-28T02:26:23.674Z,0.00
2018-11-28T02:27:23.673Z,0.00
2018-11-28T02:28:23.667Z,0.00
2018-11-28T02:29:24.381Z,0.00
2018-11-28T02:30:23.638Z,0.00
2018-11-28T02:31:23.629Z,0.00
2018-11-28T02:32:23.611Z,0.00
2018-11-28T02:33:23.623Z,0.00
2018-11-28T02:34:23.590Z,0.00
2018-11-28T02:35:23.582Z,0.00
2018-11-28T02:36:23.569Z,0.00
2018-11-28T02:37:23.591Z,0.00
2018-11-28T02:38:23.565Z,0.00
2018-11-28T02:39:23.556Z,0.00
2018-11-28T02:40:23.527Z,0.00
2018-11-28T02:41:23.516Z,0.00
2018-11-28T02:42:23.506Z,0.00
2018-11-28T02:43:23.512Z,0.00
2018-11-28T02:44:23.488Z,0.00
2018-11-28T02:45:23.485Z,0.00
2018-11-28T02:46:23.463Z,0.00
2018-11-28T02:47:23.455Z,0.00
2018-11-28T02:48:23.474Z,0.00
2018-11-28T02:49:23.432Z,0.00
2018-11-28T02:50:23.421Z,0.00
2018-11-28T02:51:23.416Z,0.00
2018-11-28T02:52:23.401Z,0.00
2018-11-28T02:53:23.389Z,0.00
2018-11-28T02:54:23.391Z,0.00
2018-11-28T02:55:23.368Z,0.00
2018-11-28T02:56:23.357Z,0.00
2018-11-28T02:57:23.358Z,0.00
2018-11-28T02:58:23.337Z,0.00
2018-11-28T02:59:23.342Z,0.00
2018-11-28T03:00:23.315Z,0.00
2018-11-28T03:01:23.306Z,0.00
2018-11-28T03:02:23.293Z,0.00
2018-11-28T03:03:23.290Z,0.00
2018-11-28T03:04:23.287Z,0.00
2018-11-28T03:05:23.263Z,0.00
2018-11-28T03:06:23.254Z,0.00
2018-11-28T03:07:23.245Z,0.00
2018-11-28T03:08:23.231Z,0.00
2018-11-28T03:09:23.237Z,0.00
2018-11-28T03:10:23.213Z,0.00
2018-11-28T03:11:23.198Z,0.00
2018-11-28T03:12:23.189Z,0.00
2018-11-28T03:13:23.178Z,0.00
2018-11-28T03:14:23.182Z,0.00
2018-11-28T03:15:23.162Z,0.00
2018-11-28T03:16:23.146Z,0.00
2018-11-28T03:17:23.136Z,0.00
2018-11-28T03:18:23.132Z,0.00
2018-11-28T03:19:23.129Z,0.00
2018-11-28T03:20:23.103Z,0.00
2018-11-28T03:21:23.094Z,0.00
2018-11-28T03:22:23.089Z,0.00
2018-11-28T03:23:23.071Z,0.00
2018-11-28T03:24:23.075Z,0.00
2018-11-28T03:25:23.058Z,0.00
2018-11-28T03:26:23.042Z,0.00
2018-11-28T03:27:23.029Z,0.00
2018-11-28T03:28:23.021Z,0.00
2018-11-28T03:29:23.019Z,0.00
2018-11-28T03:30:23.008Z,0.00
2018-11-28T03:31:23.011Z,0.00
2018-11-28T03:32:22.978Z,0.00
2018-11-28T03:33:22.965Z,0.00
2018-11-28T03:34:22.978Z,0.00
2018-11-28T03:35:22.944Z,0.00
2018-11-28T03:36:22.933Z,0.00
2018-11-28T03:37:22.923Z,0.00
2018-11-28T03:38:22.913Z,0.00
2018-11-28T03:39:22.913Z,0.00
2018-11-28T03:40:22.906Z,0.00
2018-11-28T03:41:22.885Z,0.00
2018-11-28T03:42:22.873Z,0.00
2018-11-28T03:43:22.859Z,0.00
2018-11-28T03:44:22.863Z,0.00
2018-11-28T03:45:22.840Z,0.00
2018-11-28T03:46:22.844Z,0.00
2018-11-28T03:47:22.817Z,0.00
2018-11-28T03:48:22.807Z,0.00
2018-11-28T03:49:22.811Z,0.00
2018-11-28T03:50:22.820Z,0.00
2018-11-28T03:51:22.775Z,0.00
2018-11-28T03:52:22.776Z,0.00
2018-11-28T03:53:22.758Z,0.00
2018-11-28T03:54:22.756Z,0.00
2018-11-28T03:55:22.737Z,0.00
2018-11-28T03:56:22.722Z,0.00
2018-11-28T03:57:22.711Z,0.00
2018-11-28T03:58:22.711Z,0.00
2018-11-28T03:59:22.708Z,0.00
2018-11-28T04:00:22.680Z,0.00
2018-11-28T04:01:22.670Z,0.00
2018-11-28T04:02:22.659Z,0.00
2018-11-28T04:03:22.647Z,0.00
2018-11-28T04:04:22.645Z,0.00
2018-11-28T04:05:22.643Z,0.00
2018-11-28T04:06:22.617Z,0.00
2018-11-28T04:07:22.608Z,0.00
2018-11-28T04:08:22.596Z,0.00
2018-11-28T04:09:22.598Z,0.00
2018-11-28T04:10:22.591Z,0.00
2018-11-28T04:11:22.564Z,0.00
2018-11-28T04:12:22.558Z,0.00
2018-11-28T04:13:22.543Z,0.00
2018-11-28T04:14:22.533Z,0.00
2018-11-28T04:15:22.542Z,0.00
2018-11-28T04:16:22.512Z,0.00
2018-11-28T04:17:22.506Z,0.00
2018-11-28T04:18:22.495Z,0.00
2018-11-28T04:19:22.484Z,0.00
2018-11-28T04:20:22.484Z,0.00
2018-11-28T04:21:22.472Z,0.00
2018-11-28T04:22:22.449Z,0.00
2018-11-28T04:23:22.444Z,0.00
2018-11-28T04:24:22.429Z,0.00
2018-11-28T04:25:22.436Z,0.00
2018-11-28T04:26:22.408Z,0.00
2018-11-28T04:27:22.410Z,0.00
2018-11-28T04:28:22.386Z,0.00
2018-11-28T04:29:22.379Z,0.00
2018-11-28T04:30:22.385Z,0.00
2018-11-28T04:31:22.378Z,0.00
2018-11-28T04:32:22.347Z,0.00
2018-11-28T04:33:22.343Z,0.00
2018-11-28T04:34:22.325Z,0.00
2018-11-28T04:35:22.334Z,0.00
2018-11-28T04:36:22.305Z,0.00
2018-11-28T04:37:22.294Z,0.00
2018-11-28T04:38:22.284Z,0.00
2018-11-28T04:39:22.280Z,0.00
2018-11-28T04:40:22.288Z,0.00
2018-11-28T04:41:22.253Z,0.00
2018-11-28T04:42:22.241Z,0.00
2018-11-28T04:43:22.231Z,0.00
2018-11-28T04:44:22.222Z,0.00
2018-11-28T04:45:22.229Z,0.00
2018-11-28T04:46:22.210Z,0.00
2018-11-28T04:47:22.188Z,0.00
2018-11-28T04:48:22.178Z,0.00
2018-11-28T04:49:22.175Z,0.00
2018-11-28T04:50:22.175Z,0.00
2018-11-28T04:51:22.147Z,0.00
2018-11-28T04:52:22.146Z,0.00
2018-11-28T04:53:22.126Z,0.00
2018-11-28T04:54:22.118Z,0.00
2018-11-28T04:55:22.121Z,0.00
2018-11-28T04:56:22.096Z,0.00
2018-11-28T04:57:22.084Z,0.00
2018-11-28T04:58:22.077Z,0.00
2018-11-28T04:59:22.063Z,0.00
2018-11-28T05:00:22.073Z,0.00
2018-11-28T05:01:22.044Z,0.00
2018-11-28T05:02:22.029Z,0.00
2018-11-28T05:03:22.021Z,0.00
2018-11-28T05:04:22.032Z,0.00
2018-11-28T05:05:22.014Z,0.00
2018-11-28T05:06:21.988Z,0.00
2018-11-28T05:07:22.032Z,0.00
2018-11-28T05:08:21.968Z,0.00
2018-11-28T05:09:21.957Z,0.00
2018-11-28T05:10:21.972Z,0.00
2018-11-28T05:11:21.937Z,0.00
2018-11-28T05:12:21.927Z,0.00
2018-11-28T05:13:21.916Z,0.00
2018-11-28T05:14:21.906Z,0.00
2018-11-28T05:15:21.908Z,0.00
2018-11-28T05:16:21.908Z,0.00
2018-11-28T05:17:21.872Z,0.00
2018-11-28T05:18:21.862Z,0.00
2018-11-28T05:19:21.854Z,0.00
2018-11-28T05:20:21.858Z,0.00
2018-11-28T05:21:21.831Z,0.00
2018-11-28T05:22:21.832Z,0.00
2018-11-28T05:23:21.818Z,0.00
2018-11-28T05:24:21.799Z,0.00
2018-11-28T05:25:21.805Z,0.00
2018-11-28T05:26:21.778Z,0.00
2018-11-28T05:27:21.769Z,0.00
2018-11-28T05:28:21.757Z,0.00
2018-11-28T05:29:21.760Z,0.00
2018-11-28T05:30:21.750Z,0.00
2018-11-28T05:31:21.725Z,0.00
2018-11-28T05:32:21.715Z,0.00
2018-11-28T05:33:21.711Z,0.00
2018-11-28T05:34:21.694Z,0.00
2018-11-28T05:35:21.699Z,0.00
2018-11-28T05:36:21.673Z,0.00
2018-11-28T05:37:21.664Z,0.00
2018-11-28T05:38:21.655Z,0.00
2018-11-28T05:39:21.646Z,0.00
2018-11-28T05:40:21.648Z,0.00
2018-11-28T05:41:21.628Z,0.00
2018-11-28T05:42:21.611Z,0.00
2018-11-28T05:43:21.599Z,0.00
2018-11-28T05:44:21.588Z,0.00
2018-11-28T05:45:21.590Z,0.00
2018-11-28T05:46:21.567Z,0.00
2018-11-28T05:47:21.566Z,0.00
2018-11-28T05:48:21.548Z,0.00
2018-11-28T05:49:21.535Z,0.00
2018-11-28T05:50:21.549Z,0.00
2018-11-28T05:51:21.514Z,0.00
2018-11-28T05:52:21.505Z,0.00
2018-11-28T05:53:21.503Z,0.00
2018-11-28T05:54:21.483Z,0.00
2018-11-28T05:55:21.490Z,0.00
2018-11-28T05:56:21.463Z,0.00
2018-11-28T05:57:21.452Z,0.00
2018-11-28T05:58:21.441Z,0.00
2018-11-28T05:59:27.167Z,0.00
2018-11-28T06:00:22.448Z,0.00
2018-11-28T06:01:21.411Z,0.00
2018-11-28T06:02:21.401Z,0.00
2018-11-28T06:03:21.389Z,0.00
2018-11-28T06:04:21.378Z,0.00
2018-11-28T06:05:21.417Z,0.00
2018-11-28T06:06:21.371Z,0.00
2018-11-28T06:07:21.348Z,0.00
2018-11-28T06:08:21.337Z,0.00
2018-11-28T06:09:21.328Z,0.00
2018-11-28T06:10:21.315Z,0.00
2018-11-28T06:11:21.334Z,0.00
2018-11-28T06:12:21.294Z,0.00
2018-11-28T06:13:21.284Z,0.00
2018-11-28T06:14:21.274Z,0.00
2018-11-28T06:15:21.262Z,0.00
2018-11-28T06:16:21.264Z,0.00
2018-11-28T06:17:21.247Z,0.00
2018-11-28T06:18:21.232Z,0.00
2018-11-28T06:19:21.225Z,0.00
2018-11-28T06:20:21.260Z,4.00
2018-11-28T06:21:21.214Z,4.00
2018-11-28T06:22:21.190Z,0.00
2018-11-28T06:23:21.189Z,4.00
2018-11-28T06:24:21.168Z,4.00
2018-11-28T06:25:21.162Z,4.00
2018-11-28T06:26:21.162Z,4.00
2018-11-28T06:27:21.138Z,4.00
2018-11-28T06:28:21.125Z,8.00
2018-11-28T06:29:21.126Z,12.00
2018-11-28T06:30:21.105Z,12.00
2018-11-28T06:31:21.107Z,12.00
2018-11-28T06:32:21.084Z,16.00
2018-11-28T06:33:21.073Z,20.00
2018-11-28T06:34:21.063Z,24.00
2018-11-28T06:35:21.068Z,32.00
2018-11-28T06:36:21.055Z,36.00
2018-11-28T06:37:21.031Z,40.00
2018-11-28T06:38:21.020Z,48.00
2018-11-28T06:39:21.013Z,52.00
2018-11-28T06:40:23.990Z,64.00
2018-11-28T06:41:21.011Z,72.00
2018-11-28T06:42:20.979Z,80.00
2018-11-28T06:43:20.968Z,92.00
2018-11-28T06:44:20.958Z,104.00
2018-11-28T06:45:20.948Z,116.00
2018-11-28T06:46:20.954Z,136.00
2018-11-28T06:47:20.931Z,152.00
2018-11-28T06:48:20.921Z,176.00
2018-11-28T06:49:20.906Z,196.00
2018-11-28T06:50:20.896Z,220.00
2018-11-28T06:51:20.897Z,240.00
2018-11-28T06:52:20.877Z,268.00
2018-11-28T06:53:20.873Z,288.00
2018-11-28T06:54:20.853Z,308.00
2018-11-28T06:55:20.842Z,328.00
2018-11-28T06:56:20.848Z,340.00
2018-11-28T06:57:20.821Z,356.00
2018-11-28T06:58:20.811Z,376.00
2018-11-28T06:59:20.813Z,400.00
2018-11-28T07:00:20.797Z,428.00
2018-11-28T07:01:20.793Z,452.00
2018-11-28T07:02:20.768Z,480.00
2018-11-28T07:03:20.758Z,516.00
2018-11-28T07:04:20.748Z,548.00
2018-11-28T07:05:20.747Z,580.00
2018-11-28T07:06:20.750Z,616.00
2018-11-28T07:07:20.715Z,656.00
2018-11-28T07:08:20.705Z,692.00
2018-11-28T07:09:20.696Z,732.00
2018-11-28T07:10:20.683Z,772.00
2018-11-28T07:11:20.689Z,816.00
2018-11-28T07:12:20.669Z,864.00
2018-11-28T07:13:20.655Z,908.00
2018-11-28T07:14:20.645Z,960.00
2018-11-28T07:15:20.632Z,1020.00
2018-11-28T07:16:20.633Z,1080.00
2018-11-28T07:17:20.611Z,1148.00
2018-11-28T07:18:20.608Z,1220.00
2018-11-28T07:19:20.589Z,1292.00
2018-11-28T07:20:20.579Z,1364.00
2018-11-28T07:21:20.584Z,1436.00
2018-11-28T07:22:20.559Z,1504.00
2018-11-28T07:23:20.548Z,1568.00
2018-11-28T07:24:20.550Z,1632.00
2018-11-28T07:25:20.527Z,1696.00
2018-11-28T07:26:20.530Z,1768.00
2018-11-28T07:27:20.506Z,1844.00
2018-11-28T07:28:20.495Z,1924.00
2018-11-28T07:29:20.485Z,2008.00
2018-11-28T07:30:20.482Z,2096.00
2018-11-28T07:31:20.479Z,2184.00
2018-11-28T07:32:20.452Z,2280.00
2018-11-28T07:33:20.456Z,2392.00
2018-11-28T07:34:20.437Z,2516.00
2018-11-28T07:35:20.422Z,2640.00
2018-11-28T07:36:20.414Z,2756.00
2018-11-28T07:37:20.402Z,2860.00
2018-11-28T07:38:20.402Z,2956.00
2018-11-28T07:39:20.379Z,3052.00
2018-11-28T07:40:20.403Z,3168.00
2018-11-28T07:41:20.360Z,3308.00
2018-11-28T07:42:20.363Z,3456.00
2018-11-28T07:43:20.349Z,3612.00
2018-11-28T07:44:20.339Z,3776.00
2018-11-28T07:45:20.318Z,3892.00
2018-11-28T07:46:20.304Z,3992.00
2018-11-28T07:47:20.295Z,4080.00
2018-11-28T07:48:20.300Z,4172.00
2018-11-28T07:49:20.286Z,4232.00
2018-11-28T07:50:20.263Z,4300.00
2018-11-28T07:51:20.266Z,4380.00
2018-11-28T07:52:20.241Z,4452.00
2018-11-28T07:53:20.243Z,4508.00
2018-11-28T07:54:20.223Z,4568.00
2018-11-28T07:55:20.214Z,4636.00
2018-11-28T07:56:20.198Z,4676.00
2018-11-28T07:57:20.239Z,4720.00
2018-11-28T07:58:20.190Z,4748.00
2018-11-28T07:59:20.168Z,4748.00
2018-11-28T08:00:20.158Z,4768.00
2018-11-28T08:01:20.151Z,4760.00
2018-11-28T08:02:20.135Z,4780.00
2018-11-28T08:03:20.138Z,4768.00
2018-11-28T08:04:20.411Z,4780.00
2018-11-28T08:05:20.106Z,4764.00
2018-11-28T08:06:20.094Z,4776.00
2018-11-28T08:07:20.092Z,4804.00
2018-11-28T08:08:20.086Z,4860.00
2018-11-28T08:09:20.063Z,4932.00
2018-11-28T08:10:20.051Z,5016.00
2018-11-28T08:11:20.041Z,5088.00
2018-11-28T08:12:20.030Z,5132.00
2018-11-28T08:13:20.049Z,5144.00
2018-11-28T08:14:20.009Z,5164.00
2018-11-28T08:15:19.999Z,5188.00
2018-11-28T08:16:19.989Z,5268.00
2018-11-28T08:17:19.977Z,5348.00
2018-11-28T08:18:19.982Z,5456.00
2018-11-28T08:19:24.054Z,5564.00
2018-11-28T08:20:19.956Z,5608.00
2018-11-28T08:21:19.935Z,5620.00
2018-11-28T08:22:19.929Z,5640.00
2018-11-28T08:23:19.931Z,5708.00
2018-11-28T08:24:19.906Z,5820.00
2018-11-28T08:25:19.899Z,5948.00
2018-11-28T08:26:19.893Z,6036.00
2018-11-28T08:27:19.874Z,6120.00
2018-11-28T08:28:19.895Z,6164.00
2018-11-28T08:29:19.851Z,6212.00
2018-11-28T08:30:19.975Z,6232.00
2018-11-28T08:31:19.841Z,6192.00
2018-11-28T08:32:19.820Z,6132.00
2018-11-28T08:33:19.812Z,6088.00
2018-11-28T08:34:19.812Z,6052.00
2018-11-28T08:35:19.788Z,6056.00
2018-11-28T08:36:19.778Z,6044.00
2018-11-28T08:37:19.779Z,6044.00
2018-11-28T08:38:19.756Z,6080.00
2018-11-28T08:39:19.759Z,6140.00
2018-11-28T08:40:19.742Z,6188.00
2018-11-28T08:41:19.725Z,6268.00
2018-11-28T08:42:19.714Z,6352.00
2018-11-28T08:43:19.713Z,6452.00
2018-11-28T08:44:19.708Z,6588.00
2018-11-28T08:45:19.845Z,6756.00
2018-11-28T08:46:19.673Z,6964.00
2018-11-28T08:47:19.662Z,7168.00
2018-11-28T08:48:19.652Z,7380.00
2018-11-28T08:49:19.661Z,7592.00
2018-11-28T08:50:19.631Z,7820.00
2018-11-28T08:51:19.621Z,8064.00
2018-11-28T08:52:19.613Z,8324.00
2018-11-28T08:53:19.602Z,8588.00
2018-11-28T08:54:19.617Z,8792.00
2018-11-28T08:55:19.579Z,8956.00
2018-11-28T08:56:19.568Z,9076.00
2018-11-28T08:57:19.558Z,9144.00
2018-11-28T08:58:19.547Z,9156.00
2018-11-28T08:59:19.551Z,9120.00
2018-11-28T09:00:19.537Z,9084.00
2018-11-28T09:01:19.517Z,9060.00
2018-11-28T09:02:19.505Z,9000.00
2018-11-28T09:03:19.494Z,8928.00
2018-11-28T09:04:19.498Z,8848.00
2018-11-28T09:05:19.475Z,8760.00
2018-11-28T09:06:19.471Z,8676.00
2018-11-28T09:07:19.453Z,8612.00
2018-11-28T09:08:19.442Z,8608.00
2018-11-28T09:09:19.448Z,8672.00
2018-11-28T09:10:19.422Z,8872.00
2018-11-28T09:11:19.410Z,9124.00
2018-11-28T09:12:19.405Z,9488.00
2018-11-28T09:13:19.390Z,9852.00
2018-11-28T09:14:19.392Z,10112.00
2018-11-28T09:15:19.370Z,10356.00
2018-11-28T09:16:19.367Z,10492.00
2018-11-28T09:17:19.348Z,10504.00
2018-11-28T09:18:19.345Z,10500.00
2018-11-28T09:19:19.342Z,10568.00
2018-11-28T09:20:19.314Z,10484.00
2018-11-28T09:21:19.308Z,10536.00
2018-11-28T09:22:19.292Z,10776.00
2018-11-28T09:23:19.282Z,10576.00
2018-11-28T09:24:19.294Z,10424.00
2018-11-28T09:25:19.260Z,10464.00
2018-11-28T09:26:19.255Z,10632.00
2018-11-28T09:27:19.238Z,10724.00
2018-11-28T09:28:19.232Z,10912.00
2018-11-28T09:29:19.248Z,11076.00
2018-11-28T09:30:19.210Z,11032.00
2018-11-28T09:31:19.199Z,11076.00
2018-11-28T09:32:19.186Z,11196.00
2018-11-28T09:33:19.174Z,11328.00
2018-11-28T09:34:19.165Z,11452.00
2018-11-28T09:35:19.166Z,11592.00
2018-11-28T09:36:19.146Z,11620.00
2018-11-28T09:37:19.138Z,11592.00
2018-11-28T09:38:19.131Z,11504.00
2018-11-28T09:39:19.111Z,11476.00
2018-11-28T09:40:19.113Z,11524.00
2018-11-28T09:41:19.090Z,11524.00
2018-11-28T09:42:19.080Z,11492.00
2018-11-28T09:43:19.070Z,11464.00
2018-11-28T09:44:19.063Z,11412.00
2018-11-28T09:45:19.069Z,11400.00
2018-11-28T09:46:19.041Z,11384.00
2018-11-28T09:47:19.025Z,11340.00
2018-11-28T09:48:19.020Z,11328.00
2018-11-28T09:49:19.005Z,11432.00
2018-11-28T09:50:19.010Z,11528.00
2018-11-28T09:51:18.984Z,11612.00
2018-11-28T09:52:18.977Z,11688.00
2018-11-28T09:53:18.985Z,11656.00
2018-11-28T09:54:18.965Z,11636.00
2018-11-28T09:55:18.966Z,11856.00
2018-11-28T09:56:18.931Z,11908.00
2018-11-28T09:57:18.921Z,12360.00
2018-11-28T09:58:18.913Z,12288.00
2018-11-28T09:59:18.900Z,12384.00
2018-11-28T10:00:18.908Z,12572.00
2018-11-28T10:01:18.878Z,12588.00
2018-11-28T10:02:18.871Z,12660.00
2018-11-28T10:03:18.855Z,12816.00
2018-11-28T10:04:18.922Z,12484.00
2018-11-28T10:05:18.846Z,12624.00
2018-11-28T10:06:18.827Z,13396.00
2018-11-28T10:07:18.813Z,13336.00
2018-11-28T10:08:18.807Z,13180.00
2018-11-28T10:09:18.791Z,13192.00
2018-11-28T10:10:18.799Z,13160.00
2018-11-28T10:11:18.770Z,13784.00
2018-11-28T10:12:19.788Z,14104.00
2018-11-28T10:13:18.749Z,13972.00
2018-11-28T10:14:18.746Z,13784.00
2018-11-28T10:15:18.744Z,13472.00
2018-11-28T10:16:18.719Z,13188.00
2018-11-28T10:17:18.708Z,13496.00
2018-11-28T10:18:18.699Z,13232.00
2018-11-28T10:19:18.688Z,13228.00
2018-11-28T10:20:18.695Z,13352.00
2018-11-28T10:21:18.665Z,13508.00
2018-11-28T10:22:18.655Z,13808.00
2018-11-28T10:23:18.644Z,13600.00
2018-11-28T10:24:18.633Z,13508.00
2018-11-28T10:25:18.645Z,12880.00
2018-11-28T10:26:18.648Z,12624.00
2018-11-28T10:27:18.614Z,12488.00
2018-11-28T10:28:18.591Z,12544.00
2018-11-28T10:29:18.588Z,12404.00
2018-11-28T10:30:18.594Z,12224.00
2018-11-28T10:31:18.560Z,12164.00
2018-11-28T10:32:18.580Z,12160.00
2018-11-28T10:33:18.547Z,12520.00
2018-11-28T10:34:18.528Z,12700.00
2018-11-28T10:35:18.533Z,12640.00
2018-11-28T10:36:18.509Z,12712.00
2018-11-28T10:37:18.501Z,12844.00
2018-11-28T10:38:18.487Z,12900.00
2018-11-28T10:39:18.476Z,13032.00
2018-11-28T10:40:18.481Z,13184.00
2018-11-28T10:41:18.490Z,13300.00
2018-11-28T10:42:18.465Z,13620.00
2018-11-28T10:43:18.487Z,13872.00
2018-11-28T10:44:18.429Z,14044.00
2018-11-28T10:45:18.437Z,14080.00
2018-11-28T10:46:18.401Z,13968.00
2018-11-28T10:47:18.402Z,13888.00
2018-11-28T10:48:18.380Z,13776.00
2018-11-28T10:49:18.373Z,13672.00
2018-11-28T10:50:18.380Z,13568.00
2018-11-28T10:51:18.353Z,13412.00
2018-11-28T10:52:18.339Z,13244.00
2018-11-28T10:53:18.329Z,13096.00
2018-11-28T10:54:18.318Z,13000.00
2018-11-28T10:55:18.323Z,12944.00
2018-11-28T10:56:18.297Z,12856.00
2018-11-28T10:57:18.289Z,12744.00
2018-11-28T10:58:18.286Z,12624.00
2018-11-28T10:59:18.265Z,12540.00
2018-11-28T11:00:18.270Z,12464.00
2018-11-28T11:01:18.245Z,12372.00
2018-11-28T11:02:18.875Z,12264.00
2018-11-28T11:03:18.225Z,12164.00
2018-11-28T11:04:18.220Z,12052.00
2018-11-28T11:05:18.217Z,11936.00
2018-11-28T11:06:18.194Z,11824.00
2018-11-28T11:07:18.179Z,11764.00
2018-11-28T11:08:18.177Z,11764.00
2018-11-28T11:09:18.162Z,11824.00
2018-11-28T11:10:18.163Z,11912.00
2018-11-28T11:11:18.139Z,12008.00
2018-11-28T11:12:18.127Z,12084.00
2018-11-28T11:13:18.117Z,12100.00
2018-11-28T11:14:18.107Z,12008.00
2018-11-28T11:15:18.125Z,11824.00
2018-11-28T11:16:18.086Z,11640.00
2018-11-28T11:17:18.073Z,11564.00
2018-11-28T11:18:18.063Z,11588.00
2018-11-28T11:19:18.053Z,11616.00
2018-11-28T11:20:18.099Z,11608.00
2018-11-28T11:21:18.036Z,11600.00
2018-11-28T11:22:18.031Z,11580.00
2018-11-28T11:23:18.010Z,11592.00
2018-11-28T11:24:18.002Z,11644.00
2018-11-28T11:25:17.989Z,11708.00
2018-11-28T11:26:17.993Z,11796.00
2018-11-28T11:27:17.966Z,11884.00
2018-11-28T11:28:17.964Z,11968.00
2018-11-28T11:29:17.955Z,12052.00
2018-11-28T11:30:17.935Z,12132.00
2018-11-28T11:31:17.942Z,12252.00
2018-11-28T11:32:17.915Z,12388.00
2018-11-28T11:33:17.938Z,12524.00
2018-11-28T11:34:17.899Z,12624.00
2018-11-28T11:35:17.888Z,12680.00
2018-11-28T11:36:17.886Z,12684.00
2018-11-28T11:37:17.870Z,12604.00
2018-11-28T11:38:17.850Z,12476.00
2018-11-28T11:39:17.840Z,12324.00
2018-11-28T11:40:17.833Z,12176.00
2018-11-28T11:41:17.833Z,12032.00
2018-11-28T11:42:17.813Z,11904.00
2018-11-28T11:43:17.799Z,11796.00
2018-11-28T11:44:17.790Z,11732.00
2018-11-28T11:45:17.775Z,11716.00
2018-11-28T11:46:17.778Z,11732.00
2018-11-28T11:47:17.761Z,11768.00
2018-11-28T11:48:17.838Z,11812.00
2018-11-28T11:49:17.738Z,11860.00
2018-11-28T11:50:17.721Z,11912.00
2018-11-28T11:51:17.741Z,11988.00
2018-11-28T11:52:17.699Z,12040.00
2018-11-28T11:53:17.689Z,12088.00
2018-11-28T11:54:17.679Z,12088.00
2018-11-28T11:55:17.675Z,12048.00
2018-11-28T11:56:17.671Z,12024.00
2018-11-28T11:57:17.646Z,11976.00
2018-11-28T11:58:17.635Z,11896.00
2018-11-28T11:59:17.626Z,11800.00
2018-11-28T12:00:17.613Z,11688.00
2018-11-28T12:01:17.637Z,11548.00
2018-11-28T12:02:17.597Z,11376.00
2018-11-28T12:03:17.589Z,11292.00
2018-11-28T12:04:17.579Z,11264.00
2018-11-28T12:05:17.565Z,11152.00
2018-11-28T12:06:17.563Z,10980.00
2018-11-28T12:07:17.538Z,10844.00
2018-11-28T12:08:17.528Z,10704.00
2018-11-28T12:09:17.516Z,10444.00
2018-11-28T12:10:17.505Z,10116.00
2018-11-28T12:11:17.515Z,9852.00
2018-11-28T12:12:17.491Z,9672.00
2018-11-28T12:13:17.474Z,9536.00
2018-11-28T12:14:17.462Z,9428.00
2018-11-28T12:15:17.450Z,9316.00
2018-11-28T12:16:21.583Z,9312.00
2018-11-28T12:17:17.431Z,9496.00
2018-11-28T12:18:17.424Z,9728.00
2018-11-28T12:19:17.413Z,9976.00
2018-11-28T12:20:17.400Z,10152.00
2018-11-28T12:21:17.426Z,10112.00
2018-11-28T12:22:17.410Z,9916.00
2018-11-28T12:23:17.381Z,9776.00
2018-11-28T12:24:17.359Z,9664.00
2018-11-28T12:25:17.346Z,9588.00
2018-11-28T12:26:17.334Z,9632.00
2018-11-28T12:27:17.344Z,9804.00
2018-11-28T12:28:17.310Z,10032.00
2018-11-28T12:29:17.302Z,10188.00
2018-11-28T12:30:17.292Z,10272.00
2018-11-28T12:31:17.283Z,10340.00
2018-11-28T12:32:17.281Z,10448.00
2018-11-28T12:33:17.263Z,10540.00
2018-11-28T12:34:17.266Z,10580.00
2018-11-28T12:35:17.246Z,10536.00
2018-11-28T12:36:17.230Z,10432.00
2018-11-28T12:37:18.104Z,10288.00